Graham, OK (73437)

6:58 PM CDT on August 22, 2014 (GMT -0500)
Fox Volunteer Fire Department | Change Station
CLOSE
Current Station
Personal Weather Station
Location: Fox, OK
Elevation: 988 ft
Nearby Weather Stations

Elev 988 ft 34.36 °N, 97.49 °W | Updated 3 minutes ago

Clear
Clear
95.8 °F
Feels Like 98 °F
N
10.0
Wind Variable Wind from SSE
Gusts 11.0 mph

Today
High -- | Low -- °F
--% Chance of Precip.
Yesterday
High -- | Low -- °F
Precip. -- in
6:56 AM 8:08 PM
Waning Crescent, 6% visible
Pressure 29.92 in
Visibility 10.0 miles
Clouds Clear
Heat Index 98 °F
Dew Point 64 °F
Humidity 35%
Rainfall 0.00 in
Snow Depth Not available.
UV 1 out of 12
Pollen 9.40 out of 12
Air Quality Not available.
Flu Activity Not available.
METAR K1F0 222335Z AUTO 20010G17KT 10SM CLR 35/12 A2992 RMK AO2

More Conditions Fewer Conditions

Pressure 29.92 in
Visibility 10.0 miles
Clouds Clear
Heat Index 98 °F
Dew Point 64 °F
Humidity 35%
Rainfall 0.00 in
Snow Depth Not available.
UV 1 out of 12
Pollen 9.40 out of 12
Air Quality Not available.
Flu Activity Not available.
METAR K1F0 222335Z AUTO 20010G17KT 10SM CLR 35/12 A2992 RMK AO2

More Conditions Fewer Conditions

10-Day Weather Forecast

Almanac

Astronomy

Aug. 22, 2014 Rise Set
Actual Time 6:56 AM CDT 8:08 PM CDT
Civil Twilight 6:30 AM CDT 8:35 PM CDT
Nautical Twilight 5:58 AM CDT 9:06 PM CDT
Astronomical Twilight 5:26 AM CDT 9:38 PM CDT
Moon 4:23 AM CDT 6:15 PM CDT
Length of Visible Light 14h 04m
Length of Day
13h 12m
Tomorrow will be 1m 57s shorter.
Waning Crescent, 6% of the Moon is Illuminated
Today
Waning Crescent
Aug 25
New
Sep 2
First Quarter
Sep 8
Full
Sep 15
Last Quarter

Today's Extremes

State Highs State Lows

Community

WunderPhotos

Upload Photos

1,746,310 photos uploaded!

WunderBlogs® & News

By Dr. Jeff Masters
Director of Meteorology, Weather Underground
By Kari Strenfel
Meteorologist, Weather Underground
By Christopher C. Burt
Weather Historian, Weather Underground
August 22, 2014
August 22, 2014
August 22, 2014

Nearby

Snow Depth

Station Depth Elevation
No new snow has been reported.

Earthquake Activity

City Distance Mag. Time & Date
Boley, Oklahoma 92 miles 3.4 9:50 PM CDT
2014-08-17
Perry, Oklahoma 136 miles 3.0 8:43 AM CDT
2014-08-17
Minimum magnitude displayed is 2.5.

Coastal Water Temperatures

Place Temperature
No Stations Reporting

Nearby Weather Stations